createdAt,value
2024-02-27T00:02:21.562Z,101497.84
2024-02-27T00:04:49.061Z,101502.25
2024-02-27T00:07:16.786Z,101496.75
2024-02-27T00:09:48.444Z,101499.50
2024-02-27T00:12:16.950Z,101486.91
2024-02-27T00:14:44.453Z,101479.81
2024-02-27T00:17:11.864Z,101478.16
2024-02-27T00:19:39.307Z,101489.63
2024-02-27T00:22:06.614Z,101488.56
2024-02-27T00:24:34.836Z,101483.09
2024-02-27T00:27:02.485Z,101471.03
2024-02-27T00:29:33.089Z,101476.22
2024-02-27T00:32:00.676Z,101464.72
2024-02-27T00:34:28.141Z,101466.91
2024-02-27T00:36:55.562Z,101465.78
2024-02-27T00:39:23.370Z,101449.34
2024-02-27T00:41:52.983Z,101449.63
2024-02-27T00:44:22.227Z,101450.16
2024-02-27T00:46:49.622Z,101438.13
2024-02-27T00:49:17.098Z,101436.44
2024-02-27T00:51:44.518Z,101431.25
2024-02-27T00:54:12.055Z,101426.59
2024-02-27T00:56:39.462Z,101414.81
2024-02-27T00:59:07.311Z,101421.13
2024-02-27T01:01:34.692Z,101416.19
2024-02-27T01:04:02.061Z,101417.81
2024-02-27T01:06:29.560Z,101420.56
2024-02-27T01:08:56.970Z,101416.19
2024-02-27T01:11:26.280Z,101423.56
2024-02-27T01:13:53.558Z,101424.41
2024-02-27T01:16:22.091Z,101425.75
2024-02-27T01:18:49.530Z,101429.84
2024-02-27T01:21:17.212Z,101440.53
2024-02-27T01:23:44.602Z,101451.72
2024-02-27T01:26:13.192Z,101446.75
2024-02-27T01:28:40.481Z,101440.72
2024-02-27T01:31:10.086Z,101453.31
2024-02-27T01:33:37.559Z,101448.38
2024-02-27T01:36:05.393Z,101442.38
2024-02-27T01:38:32.775Z,101431.94
2024-02-27T01:41:00.120Z,101442.63
2024-02-27T01:43:27.866Z,101445.91
2024-02-27T01:46:14.192Z,101439.03
2024-02-27T01:48:43.227Z,101424.78
2024-02-27T01:51:13.011Z,101412.69
2024-02-27T01:53:42.708Z,101428.88
2024-02-27T01:56:11.905Z,101427.47
2024-02-27T01:58:40.287Z,101430.75
2024-02-27T02:01:09.308Z,101411.88
2024-02-27T02:03:39.717Z,101404.19
2024-02-27T02:06:08.846Z,101403.88
2024-02-27T02:08:36.678Z,101403.88
2024-02-27T02:11:10.679Z,101405.53
2024-02-27T02:13:38.711Z,101406.34
2024-02-27T02:16:06.445Z,101399.47
2024-02-27T02:18:34.082Z,101388.22
2024-02-27T02:21:01.932Z,101389.03
2024-02-27T02:23:31.429Z,101378.59
2024-02-27T02:25:59.900Z,101363.81
2024-02-27T02:28:27.856Z,101358.84
2024-02-27T02:30:55.520Z,101347.63
2024-02-27T02:33:25.170Z,101348.97
2024-02-27T02:35:52.594Z,101345.13
2024-02-27T02:38:20.796Z,101351.66
2024-02-27T02:40:48.178Z,101347.28
2024-02-27T02:43:15.572Z,101336.84
2024-02-27T02:45:43.310Z,101333.00
2024-02-27T02:48:10.886Z,101325.59
2024-02-27T02:50:38.655Z,101323.38
2024-02-27T02:53:06.024Z,101312.13
2024-02-27T02:55:33.367Z,101307.97
2024-02-27T02:58:00.701Z,101298.38
2024-02-27T03:03:29.516Z,101283.56
2024-02-27T03:05:56.982Z,101279.72
2024-02-27T03:08:26.398Z,101252.84
2024-02-27T03:10:53.795Z,101241.88
2024-02-27T03:13:22.184Z,101242.97
2024-02-27T03:15:49.586Z,101229.00
2024-02-27T03:18:16.981Z,101235.28
2024-02-27T03:20:44.325Z,101230.31
2024-02-27T03:23:11.593Z,101225.66
2024-02-27T03:25:38.980Z,101232.75
2024-02-27T03:28:06.392Z,101235.22
2024-02-27T03:30:33.706Z,101231.91
2024-02-27T03:33:03.083Z,101229.69
2024-02-27T03:35:30.419Z,101232.94
2024-02-27T03:37:57.675Z,101223.63
2024-02-27T03:40:24.964Z,101218.66
2024-02-27T03:42:52.364Z,101202.72
2024-02-27T03:45:19.872Z,101198.56
2024-02-27T03:47:47.569Z,101189.25
2024-02-27T03:50:15.037Z,101184.28
2024-02-27T03:52:43.916Z,101171.91
2024-02-27T03:55:11.477Z,101169.66
2024-02-27T03:57:38.911Z,101164.72
2024-02-27T04:00:07.538Z,101159.75
2024-02-27T04:02:34.965Z,101163.84
2024-02-27T04:05:02.406Z,101139.97
2024-02-27T04:07:29.689Z,101153.06
2024-02-27T04:09:56.993Z,101130.03
2024-02-27T04:12:24.307Z,101125.03
2024-02-27T04:14:51.719Z,101115.13
2024-02-27T04:17:20.610Z,101110.47
2024-02-27T04:19:48.029Z,101112.91
2024-02-27T04:22:15.376Z,101105.19
2024-02-27T04:24:42.724Z,101103.47
2024-02-27T04:27:10.053Z,101104.00
2024-02-27T04:29:37.352Z,101102.25
2024-02-27T04:32:08.069Z,101093.25
2024-02-27T04:34:35.398Z,101085.81
2024-02-27T04:37:02.854Z,101095.69
2024-02-27T04:39:30.394Z,101097.59
2024-02-27T04:41:57.678Z,101102.81
2024-02-27T04:44:24.998Z,101097.50
2024-02-27T04:46:52.558Z,101100.78
2024-02-27T04:49:22.347Z,101118.59
2024-02-27T04:51:51.637Z,101122.34
2024-02-27T04:54:19.128Z,101102.03
2024-02-27T04:56:46.410Z,101097.06
2024-02-27T04:59:13.726Z,101108.53
2024-02-27T05:01:42.294Z,101094.81
2024-02-27T05:04:11.371Z,101093.13
2024-02-27T05:06:38.740Z,101078.25
2024-02-27T05:09:06.667Z,101084.28
2024-02-27T05:11:34.012Z,101080.41
2024-02-27T05:14:01.651Z,101075.41
2024-02-27T05:16:28.974Z,101067.72
2024-02-27T05:18:56.395Z,101059.16
2024-02-27T05:21:23.882Z,101058.25
2024-02-27T05:23:51.222Z,101055.44
2024-02-27T05:26:18.538Z,101057.88
2024-02-27T05:28:45.801Z,101060.03
2024-02-27T05:31:28.016Z,101057.16
2024-02-27T05:33:57.261Z,101057.91
2024-02-27T05:36:25.495Z,101045.47
2024-02-27T05:38:55.247Z,101045.16
2024-02-27T05:41:22.982Z,101035.00
2024-02-27T05:43:52.697Z,101040.22
2024-02-27T05:46:20.083Z,101030.84
2024-02-27T05:48:47.388Z,101024.22
2024-02-27T05:51:15.036Z,101020.66
2024-02-27T05:53:42.432Z,101016.28
2024-02-27T05:56:09.695Z,101012.44
2024-02-27T05:58:36.966Z,101006.63
2024-02-27T06:01:04.902Z,101000.00
2024-02-27T06:03:36.033Z,100998.38
2024-02-27T06:06:03.561Z,101000.50
2024-02-27T06:08:30.998Z,100993.91
2024-02-27T06:10:58.259Z,100977.94
2024-02-27T06:13:27.546Z,100973.25
2024-02-27T06:15:55.205Z,100965.84
2024-02-27T06:18:22.565Z,100958.09
2024-02-27T06:21:09.246Z,100949.53
2024-02-27T06:23:36.886Z,100941.63
2024-02-27T06:26:04.293Z,100930.31
2024-02-27T06:28:33.584Z,100930.00
2024-02-27T06:31:00.833Z,100915.13
2024-02-27T06:33:28.254Z,100907.44
2024-02-27T06:35:55.648Z,100891.72
2024-02-27T06:38:22.912Z,100879.97
2024-02-27T06:40:50.457Z,100880.75
2024-02-27T06:43:17.856Z,100883.19
2024-02-27T06:45:45.093Z,100882.09
2024-02-27T06:48:14.648Z,100876.28
2024-02-27T06:50:43.220Z,100880.34
2024-02-27T06:53:11.535Z,100863.84
2024-02-27T06:55:39.071Z,100867.13
2024-02-27T06:58:06.852Z,100866.00
2024-02-27T07:00:34.159Z,100848.38
2024-02-27T07:03:02.404Z,100844.53
2024-02-27T07:05:35.722Z,100840.66
2024-02-27T07:08:07.529Z,100846.16
2024-02-27T07:10:34.895Z,100843.41
2024-02-27T07:13:02.258Z,100852.16
2024-02-27T07:15:29.554Z,100847.97
2024-02-27T07:17:56.982Z,100843.28
2024-02-27T07:20:26.385Z,100825.16
2024-02-27T07:22:54.443Z,100825.47
2024-02-27T07:25:21.994Z,100825.78
2024-02-27T07:27:50.256Z,100819.50
2024-02-27T07:30:17.985Z,100815.13
2024-02-27T07:32:45.968Z,100814.28
2024-02-27T07:35:14.089Z,100817.03
2024-02-27T07:37:41.532Z,100814.00
2024-02-27T07:40:09.555Z,100814.78
2024-02-27T07:42:37.077Z,100809.81
2024-02-27T07:45:05.994Z,100809.50
2024-02-27T07:47:33.496Z,100810.31
2024-02-27T07:50:01.881Z,100796.25
2024-02-27T07:52:29.205Z,100808.53
2024-02-27T07:54:56.544Z,100796.13
2024-02-27T07:57:26.149Z,100787.56
2024-02-27T07:59:53.700Z,100796.78
2024-02-27T08:02:23.021Z,100777.75
2024-02-27T08:04:50.315Z,100779.06
2024-02-27T08:07:17.823Z,100793.28
2024-02-27T08:09:45.141Z,100791.03
2024-02-27T08:12:13.236Z,100784.09
2024-02-27T08:14:40.492Z,100793.69
2024-02-27T08:17:07.977Z,100782.84
2024-02-27T08:19:36.113Z,100784.47
2024-02-27T08:22:05.310Z,100782.22
2024-02-27T08:24:33.995Z,100778.34
2024-02-27T08:27:04.635Z,100782.41
2024-02-27T08:29:34.513Z,100778.22
2024-02-27T08:32:01.827Z,100775.63
2024-02-27T08:34:29.177Z,100770.31
2024-02-27T08:36:57.644Z,100769.69
2024-02-27T08:39:25.031Z,100765.16
2024-02-27T08:41:52.326Z,100770.84
2024-02-27T08:44:19.622Z,100769.38
2024-02-27T08:46:46.868Z,100765.19
2024-02-27T08:49:15.173Z,100766.50
2024-02-27T08:51:43.755Z,100768.31
2024-02-27T08:54:11.831Z,100777.53
2024-02-27T08:56:42.171Z,100773.34
2024-02-27T08:59:09.640Z,100776.75
2024-02-27T09:01:37.014Z,100761.41
2024-02-27T09:04:04.717Z,100755.44
2024-02-27T09:06:32.283Z,100762.38
2024-02-27T09:08:59.649Z,100757.53
2024-02-27T09:11:28.128Z,100753.19
2024-02-27T09:13:55.639Z,100752.25
2024-02-27T09:16:22.893Z,100737.03
2024-02-27T09:18:51.278Z,100742.66
2024-02-27T09:21:18.734Z,100743.66
2024-02-27T09:23:46.119Z,100745.91
2024-02-27T09:26:13.426Z,100746.75
2024-02-27T09:28:41.020Z,100744.00
2024-02-27T09:31:13.906Z,100751.44
2024-02-27T09:33:44.149Z,100749.66
2024-02-27T09:36:11.891Z,100749.34
2024-02-27T09:38:41.003Z,100753.38
2024-02-27T09:41:22.775Z,100743.31
2024-02-27T09:43:55.495Z,100749.47
2024-02-27T09:46:24.542Z,100757.09
2024-02-27T09:48:53.350Z,100749.78
2024-02-27T09:51:23.795Z,100747.66
2024-02-27T09:53:51.943Z,100729.34
2024-02-27T09:56:20.300Z,100732.75
2024-02-27T09:58:47.628Z,100733.03
2024-02-27T10:01:20.131Z,100727.81
2024-02-27T10:03:49.275Z,100740.78
2024-02-27T10:06:21.024Z,100732.66
2024-02-27T10:08:57.379Z,100724.88
2024-02-27T10:11:26.066Z,100717.34
2024-02-27T10:13:53.483Z,100728.69
2024-02-27T10:16:22.988Z,100721.03
2024-02-27T10:18:50.875Z,100730.41
2024-02-27T10:21:19.386Z,100730.03
2024-02-27T10:23:47.795Z,100731.47
2024-02-27T10:26:16.296Z,100715.72
2024-02-27T10:28:43.607Z,100720.84
2024-02-27T10:31:12.530Z,100721.94
2024-02-27T10:33:40.641Z,100723.56
2024-02-27T10:36:09.958Z,100716.22
2024-02-27T10:38:37.441Z,100751.72
2024-02-27T10:41:04.945Z,100725.84
2024-02-27T10:43:36.395Z,100721.63
2024-02-27T10:46:04.073Z,100743.72
2024-02-27T10:48:38.649Z,100746.34
2024-02-27T10:51:13.247Z,100745.66
2024-02-27T10:53:42.643Z,100752.94
2024-02-27T10:56:10.052Z,100737.66
2024-02-27T10:58:37.836Z,100743.78
2024-02-27T11:01:08.187Z,100753.50
2024-02-27T11:03:41.990Z,100750.06
2024-02-27T11:06:15.218Z,100761.59
2024-02-27T11:08:44.236Z,100754.22
2024-02-27T11:11:13.123Z,100755.19
2024-02-27T11:13:43.172Z,100757.06
2024-02-27T11:16:15.088Z,100756.19
2024-02-27T11:18:48.533Z,100752.25
2024-02-27T11:21:17.739Z,100754.69
2024-02-27T11:23:45.682Z,100761.50
2024-02-27T11:26:13.934Z,100758.72
2024-02-27T11:28:43.009Z,100756.22
2024-02-27T11:31:11.937Z,100758.78
2024-02-27T11:33:49.868Z,100763.41
2024-02-27T11:36:17.600Z,100772.44
2024-02-27T11:38:45.685Z,100765.44
2024-02-27T11:41:17.448Z,100768.28
2024-02-27T11:43:56.451Z,100763.25
2024-02-27T11:46:32.817Z,100776.09
2024-02-27T11:49:01.216Z,100764.22
2024-02-27T11:51:33.977Z,100784.69
2024-02-27T11:54:01.681Z,100771.06
2024-02-27T11:56:30.160Z,100779.56
2024-02-27T11:58:57.549Z,100776.69
2024-02-27T12:01:25.184Z,100776.91
2024-02-27T12:03:55.658Z,100782.31
2024-02-27T12:06:23.190Z,100785.59
2024-02-27T12:08:52.226Z,100782.59
2024-02-27T12:11:22.229Z,100784.28
2024-02-27T12:13:51.058Z,100790.69
2024-02-27T12:16:25.753Z,100803.75
2024-02-27T12:18:55.527Z,100796.34
2024-02-27T12:21:35.596Z,100794.44
2024-02-27T12:24:16.092Z,100789.94
2024-02-27T12:26:44.608Z,100790.75
2024-02-27T12:29:12.192Z,100792.84
2024-02-27T12:31:39.936Z,100787.31
2024-02-27T12:34:08.173Z,100782.25
2024-02-27T12:36:36.821Z,100780.72
2024-02-27T12:39:04.695Z,100780.97
2024-02-27T12:41:32.325Z,100781.28
2024-02-27T12:43:59.677Z,100779.22
2024-02-27T12:46:28.527Z,100780.28
2024-02-27T12:48:56.794Z,100789.19
2024-02-27T12:51:24.811Z,100774.34
2024-02-27T12:53:52.342Z,100781.50
2024-02-27T12:56:20.634Z,100788.09
2024-02-27T12:58:52.761Z,100797.22
2024-02-27T13:01:20.123Z,100797.31
2024-02-27T13:03:51.158Z,100807.88
2024-02-27T13:06:18.704Z,100805.25
2024-02-27T13:08:48.159Z,100800.97
2024-02-27T13:11:15.657Z,100803.09
2024-02-27T13:13:43.146Z,100804.13
2024-02-27T13:16:10.574Z,100810.81
2024-02-27T13:18:38.091Z,100803.91
2024-02-27T13:21:05.745Z,100797.56
2024-02-27T13:23:33.276Z,100797.56
2024-02-27T13:26:01.861Z,100799.97
2024-02-27T13:28:30.825Z,100801.69
2024-02-27T13:30:58.907Z,100797.78
2024-02-27T13:33:28.213Z,100806.41
2024-02-27T13:35:56.407Z,100798.69
2024-02-27T13:38:24.785Z,100803.97
2024-02-27T13:40:55.582Z,100800.53
2024-02-27T13:43:23.755Z,100826.34
2024-02-27T13:45:52.196Z,100812.94
2024-02-27T13:48:20.233Z,100819.38
2024-02-27T13:50:47.711Z,100823.16
2024-02-27T13:53:15.578Z,100818.69
2024-02-27T13:55:44.565Z,100828.50
2024-02-27T13:58:13.155Z,100835.47
2024-02-27T14:00:40.568Z,100831.19
2024-02-27T14:03:10.388Z,100835.31
2024-02-27T14:05:38.422Z,100840.63
2024-02-27T14:08:07.724Z,100833.75
2024-02-27T14:10:39.595Z,100845.78
2024-02-27T14:13:11.156Z,100842.88
2024-02-27T14:15:38.697Z,100855.94
2024-02-27T14:18:06.620Z,100865.16
2024-02-27T14:20:34.924Z,100859.13
2024-02-27T14:23:02.246Z,100852.84
2024-02-27T14:25:34.051Z,100857.69
2024-02-27T14:28:03.182Z,100857.09
2024-02-27T14:30:30.804Z,100860.91
2024-02-27T14:33:04.810Z,100852.38
2024-02-27T14:35:34.464Z,100841.81
2024-02-27T14:38:02.361Z,100849.47
2024-02-27T14:40:32.079Z,100849.03
2024-02-27T14:42:59.513Z,100856.06
2024-02-27T14:45:28.018Z,100849.56
2024-02-27T14:47:55.592Z,100855.72
2024-02-27T14:50:23.403Z,100860.91
2024-02-27T14:52:50.765Z,100858.69
2024-02-27T14:55:18.139Z,100876.75
2024-02-27T14:57:46.152Z,100880.66
2024-02-27T15:00:18.544Z,100881.13
2024-02-27T15:02:47.146Z,100889.88
2024-02-27T15:05:14.780Z,100880.91
2024-02-27T15:07:42.391Z,100877.53
2024-02-27T15:10:09.990Z,100888.28
2024-02-27T15:12:40.353Z,100897.19
2024-02-27T15:15:08.181Z,100888.75
2024-02-27T15:17:36.545Z,100903.75
2024-02-27T15:20:04.635Z,100890.13
2024-02-27T15:22:35.187Z,100895.44
2024-02-27T15:25:05.218Z,100896.00
2024-02-27T15:27:32.619Z,100897.13
2024-02-27T15:30:00.004Z,100895.47
2024-02-27T15:32:27.898Z,100898.00
2024-02-27T15:34:56.138Z,100899.22
2024-02-27T15:37:23.780Z,100905.19
2024-02-27T15:39:53.099Z,100908.84
2024-02-27T15:42:20.871Z,100911.81
2024-02-27T15:44:48.170Z,100908.59
2024-02-27T15:47:15.738Z,100923.91
2024-02-27T15:49:43.283Z,100920.19
2024-02-27T15:52:11.168Z,100913.06
2024-02-27T15:54:38.618Z,100931.63
2024-02-27T15:57:06.152Z,100926.13
2024-02-27T15:59:33.534Z,100929.59
2024-02-27T16:02:01.849Z,100932.31
2024-02-27T16:04:39.904Z,100924.88
2024-02-27T16:07:20.983Z,100936.13
2024-02-27T16:09:48.374Z,100932.91
2024-02-27T16:12:21.543Z,100939.56
2024-02-27T16:14:54.910Z,100938.75
2024-02-27T16:17:22.211Z,100952.38
2024-02-27T16:19:51.640Z,100950.22
2024-02-27T16:22:24.820Z,100950.84
2024-02-27T16:24:52.291Z,100948.22
2024-02-27T16:27:19.828Z,100958.81
2024-02-27T16:29:47.316Z,100944.03
2024-02-27T16:32:14.674Z,100948.81
2024-02-27T16:34:42.144Z,100941.03
2024-02-27T16:37:09.736Z,100934.91
2024-02-27T16:39:37.301Z,100942.25
2024-02-27T16:42:06.445Z,100949.09
2024-02-27T16:44:36.880Z,100954.81
2024-02-27T16:47:04.223Z,100952.56
2024-02-27T16:49:31.743Z,100968.50
2024-02-27T16:51:59.268Z,100967.09
2024-02-27T16:54:26.661Z,100963.84
2024-02-27T16:56:53.962Z,100971.66
2024-02-27T16:59:24.214Z,100969.88
2024-02-27T17:01:51.624Z,100983.00
2024-02-27T17:04:19.868Z,100981.19
2024-02-27T17:06:47.676Z,100979.25
2024-02-27T17:09:16.130Z,100975.19
2024-02-27T17:11:44.577Z,100970.16
2024-02-27T17:14:12.299Z,100972.09
2024-02-27T17:16:39.592Z,100995.66
2024-02-27T17:19:07.153Z,100996.97
2024-02-27T17:21:34.538Z,100998.31
2024-02-27T17:24:01.849Z,100994.44
2024-02-27T17:26:29.128Z,100983.09
2024-02-27T17:28:56.629Z,100987.50
2024-02-27T17:31:23.977Z,100994.19
2024-02-27T17:33:51.410Z,101010.28
2024-02-27T17:36:18.954Z,101026.66
2024-02-27T17:38:46.618Z,101019.38
2024-02-27T17:41:13.921Z,101038.53
2024-02-27T17:43:41.313Z,101044.53
2024-02-27T17:46:11.080Z,101035.94
2024-02-27T17:48:38.901Z,101038.03
2024-02-27T17:51:06.539Z,101039.31
2024-02-27T17:53:33.908Z,101040.00
2024-02-27T17:56:01.187Z,101045.66
2024-02-27T17:58:30.323Z,101049.25
2024-02-27T18:00:57.705Z,101046.13
2024-02-27T18:03:25.094Z,101046.25
2024-02-27T18:05:52.730Z,101034.56
2024-02-27T18:08:20.055Z,101035.19
2024-02-27T18:10:47.379Z,101037.28
2024-02-27T18:13:14.685Z,101047.03
2024-02-27T18:15:42.081Z,101045.09
2024-02-27T18:18:09.520Z,101051.59
2024-02-27T18:20:36.919Z,101058.72
2024-02-27T18:23:05.637Z,101072.22
2024-02-27T18:25:37.309Z,101077.09
2024-02-27T18:28:05.069Z,101071.72
2024-02-27T18:30:35.881Z,101074.16
2024-02-27T18:33:07.793Z,101076.59
2024-02-27T18:35:35.848Z,101078.22
2024-02-27T18:38:04.210Z,101085.34
2024-02-27T18:40:33.739Z,101076.78
2024-02-27T18:43:01.677Z,101083.13
2024-02-27T18:45:30.139Z,101087.00
2024-02-27T18:47:57.770Z,101095.25
2024-02-27T18:50:25.082Z,101087.00
2024-02-27T18:52:52.500Z,101094.94
2024-02-27T18:55:20.403Z,101072.06
2024-02-27T18:57:47.736Z,101076.78
2024-02-27T19:00:15.491Z,101087.63
2024-02-27T19:02:42.838Z,101079.84
2024-02-27T19:05:11.247Z,101081.94
2024-02-27T19:07:39.789Z,101093.13
2024-02-27T19:10:09.011Z,101098.25
2024-02-27T19:12:36.637Z,101093.22
2024-02-27T19:15:05.136Z,101095.31
2024-02-27T19:17:32.564Z,101085.25
2024-02-27T19:19:59.892Z,101088.94
2024-02-27T19:22:27.900Z,101092.16
2024-02-27T19:24:55.243Z,101099.75
2024-02-27T19:27:23.660Z,101097.13
2024-02-27T19:29:52.625Z,101093.06
2024-02-27T19:32:19.932Z,101097.28
2024-02-27T19:34:47.160Z,101088.50
2024-02-27T19:37:14.442Z,101102.28
2024-02-27T19:39:41.802Z,101107.00
2024-02-27T19:42:09.266Z,101114.44
2024-02-27T19:44:36.867Z,101123.19
2024-02-27T19:47:07.861Z,101117.88
2024-02-27T19:49:36.576Z,101117.25
2024-02-27T19:52:04.550Z,101105.69
2024-02-27T19:54:32.243Z,101090.63
2024-02-27T19:56:59.665Z,101090.13
2024-02-27T19:59:28.186Z,101096.75
2024-02-27T20:01:55.553Z,101101.78
2024-02-27T20:04:22.885Z,101099.84
2024-02-27T20:06:50.416Z,101100.03
2024-02-27T20:09:17.869Z,101104.09
2024-02-27T20:11:46.054Z,101101.00
2024-02-27T20:14:15.574Z,101101.22
2024-02-27T20:16:42.916Z,101101.22
2024-02-27T20:19:10.279Z,101094.88
2024-02-27T20:21:43.040Z,101094.88
2024-02-27T20:24:11.504Z,101100.38
2024-02-27T20:26:42.744Z,101106.38
2024-02-27T20:29:10.098Z,101115.13
2024-02-27T20:31:37.379Z,101109.63
2024-02-27T20:34:05.061Z,101106.09
2024-02-27T20:36:32.540Z,101107.53
2024-02-27T20:38:59.947Z,101115.28
2024-02-27T20:41:27.350Z,101127.94
2024-02-27T20:43:54.596Z,101126.63
2024-02-27T20:46:24.029Z,101123.06
2024-02-27T20:48:54.783Z,101112.66
2024-02-27T20:51:22.426Z,101121.75
2024-02-27T20:53:49.775Z,101109.41
2024-02-27T20:56:19.229Z,101117.69
2024-02-27T20:58:47.668Z,101132.91
2024-02-27T21:01:15.182Z,101134.03
2024-02-27T21:03:43.371Z,101120.56
2024-02-27T21:06:11.518Z,101121.19
2024-02-27T21:08:40.220Z,101119.69
2024-02-27T21:11:07.682Z,101124.22
2024-02-27T21:13:34.981Z,101121.59
2024-02-27T21:16:04.297Z,101132.75
2024-02-27T21:18:31.723Z,101137.72
2024-02-27T21:20:59.083Z,101145.69
2024-02-27T21:23:26.357Z,101136.94
2024-02-27T21:25:54.196Z,101126.72
2024-02-27T21:28:22.336Z,101131.22
2024-02-27T21:30:49.663Z,101138.19
2024-02-27T21:33:18.485Z,101139.00
2024-02-27T21:35:46.144Z,101135.72
2024-02-27T21:38:13.467Z,101139.63
2024-02-27T21:40:40.770Z,101133.09
2024-02-27T21:43:08.044Z,101126.59
2024-02-27T21:45:36.009Z,101125.59
2024-02-27T21:48:03.544Z,101115.84
2024-02-27T21:50:30.883Z,101119.22
2024-02-27T21:52:58.388Z,101118.53
2024-02-27T21:55:25.698Z,101116.59
2024-02-27T21:57:53.024Z,101123.81
2024-02-27T22:00:21.923Z,101120.91
2024-02-27T22:02:49.317Z,101110.00
2024-02-27T22:05:19.394Z,101112.06
2024-02-27T22:07:47.791Z,101107.19
2024-02-27T22:10:15.482Z,101108.91
2024-02-27T22:12:42.909Z,101094.44
2024-02-27T22:15:10.699Z,101090.38
2024-02-27T22:17:38.188Z,101117.41
2024-02-27T22:20:06.155Z,101124.81
2024-02-27T22:22:33.508Z,101133.91
2024-02-27T22:25:00.856Z,101114.75
2024-02-27T22:27:28.118Z,101115.69
2024-02-27T22:29:55.848Z,101115.50
2024-02-27T22:32:23.228Z,101130.66
2024-02-27T22:34:50.899Z,101133.75
2024-02-27T22:37:18.134Z,101134.34
2024-02-27T22:39:45.455Z,101126.38
2024-02-27T22:42:12.830Z,101124.56
2024-02-27T22:44:40.160Z,101129.88
2024-02-27T22:47:07.546Z,101118.06
2024-02-27T22:49:35.315Z,101118.69
2024-02-27T22:52:02.626Z,101115.22
2024-02-27T22:54:30.037Z,101120.22
2024-02-27T22:56:57.367Z,101108.41
2024-02-27T22:59:24.640Z,101115.00
2024-02-27T23:01:52.193Z,101109.31
2024-02-27T23:04:19.803Z,101115.44
2024-02-27T23:06:47.470Z,101112.16
2024-02-27T23:09:14.943Z,101116.22
2024-02-27T23:11:43.266Z,101095.06
2024-02-27T23:14:10.650Z,101075.09
2024-02-27T23:16:43.468Z,101084.78
2024-02-27T23:19:10.769Z,101092.75
2024-02-27T23:21:38.151Z,101122.38
2024-02-27T23:24:06.023Z,101123.97
2024-02-27T23:26:33.384Z,101123.47
2024-02-27T23:29:01.152Z,101124.56
2024-02-27T23:31:28.710Z,101117.25
2024-02-27T23:33:56.138Z,101118.06
2024-02-27T23:36:23.531Z,101116.16
2024-02-27T23:38:52.010Z,101102.19
2024-02-27T23:41:19.504Z,101101.69
2024-02-27T23:43:46.864Z,101100.88
2024-02-27T23:46:15.979Z,101101.38
2024-02-27T23:48:43.734Z,101096.19
2024-02-27T23:51:11.506Z,101096.81
2024-02-27T23:53:38.910Z,101106.44
2024-02-27T23:56:06.484Z,101100.94
2024-02-27T23:58:33.805Z,101111.13
